createdAt,value
2018-08-10T00:00:49.709Z,101283.71
2018-08-10T00:03:18.568Z,101292.56
2018-08-10T00:05:47.443Z,101302.55
2018-08-10T00:08:16.539Z,101307.73
2018-08-10T00:10:45.394Z,101313.94
2018-08-10T00:13:14.345Z,101316.72
2018-08-10T00:15:43.257Z,101330.77
2018-08-10T00:18:12.323Z,101341.63
2018-08-10T00:20:41.198Z,101341.39
2018-08-10T00:23:10.080Z,101346.80
2018-08-10T00:25:39.071Z,101351.89
2018-08-10T00:28:09.025Z,101365.85
2018-08-10T00:30:37.917Z,101374.53
2018-08-10T00:33:06.829Z,101369.93
2018-08-10T00:35:35.730Z,101374.59
2018-08-10T00:38:04.652Z,101380.44
2018-08-10T00:40:33.525Z,101393.10
2018-08-10T00:43:02.434Z,101394.50
2018-08-10T00:45:31.358Z,101394.63
2018-08-10T00:48:00.236Z,101396.37
2018-08-10T00:50:29.106Z,101408.43
2018-08-10T00:52:58.025Z,101419.23
2018-08-10T00:55:26.943Z,101409.03
2018-08-10T00:57:55.803Z,101426.87
2018-08-10T01:00:24.965Z,101421.45
2018-08-10T01:02:54.211Z,101428.12
2018-08-10T01:05:23.097Z,101435.03
2018-08-10T01:07:52.080Z,101433.52
2018-08-10T01:10:21.359Z,101432.14
2018-08-10T01:12:50.294Z,101431.15
2018-08-10T01:15:19.215Z,101433.45
2018-08-10T01:17:48.145Z,101434.74
2018-08-10T01:20:20.969Z,101441.88
2018-08-10T01:22:55.093Z,101450.05
2018-08-10T01:25:25.048Z,101457.72
2018-08-10T01:27:59.235Z,101461.19
2018-08-10T01:30:29.389Z,101460.70
2018-08-10T01:32:58.512Z,101460.34
2018-08-10T01:35:27.944Z,101462.95
2018-08-10T01:37:57.934Z,101459.92
2018-08-10T01:40:26.814Z,101465.56
2018-08-10T01:42:55.757Z,101462.10
2018-08-10T01:45:24.692Z,101471.48
2018-08-10T01:47:53.876Z,101472.66
2018-08-10T01:50:22.902Z,101472.41
2018-08-10T01:52:51.804Z,101478.17
2018-08-10T01:55:20.716Z,101480.08
2018-08-10T01:57:49.659Z,101478.27
2018-08-10T02:00:18.587Z,101485.68
2018-08-10T02:02:47.470Z,101493.92
2018-08-10T02:05:16.658Z,101485.05
2018-08-10T02:07:45.595Z,101497.16
2018-08-10T02:10:16.673Z,101494.26
2018-08-10T02:12:50.104Z,101505.53
2018-08-10T02:15:19.557Z,101496.11
2018-08-10T02:17:48.962Z,101493.80
2018-08-10T02:20:19.914Z,101500.52
2018-08-10T02:22:49.407Z,101504.08
2018-08-10T02:25:20.125Z,101504.56
2018-08-10T02:27:49.671Z,101510.73
2018-08-10T02:30:19.710Z,101515.13
2018-08-10T02:32:50.406Z,101513.51
2018-08-10T02:35:19.373Z,101526.22
2018-08-10T02:37:48.334Z,101520.85
2018-08-10T02:40:19.892Z,101522.14
2018-08-10T02:42:49.526Z,101521.29
2018-08-10T02:45:18.731Z,101525.66
2018-08-10T02:47:48.180Z,101532.89
2018-08-10T02:50:17.071Z,101536.08
2018-08-10T02:52:46.266Z,101540.58
2018-08-10T02:55:15.285Z,101551.76
2018-08-10T02:57:44.352Z,101549.42
2018-08-10T03:00:14.675Z,101553.97
2018-08-10T03:02:44.222Z,101556.91
2018-08-10T03:05:13.132Z,101560.98
2018-08-10T03:07:42.352Z,101559.79
2018-08-10T03:10:12.264Z,101567.31
2018-08-10T03:12:41.181Z,101570.67
2018-08-10T03:15:12.467Z,101576.02
2018-08-10T03:17:41.418Z,101577.47
2018-08-10T03:20:10.639Z,101579.51
2018-08-10T03:22:39.830Z,101588.01
2018-08-10T03:25:09.721Z,101590.23
2018-08-10T03:27:38.825Z,101596.14
2018-08-10T03:30:09.301Z,101596.73
2018-08-10T03:32:38.563Z,101593.03
2018-08-10T03:35:07.465Z,101595.41
2018-08-10T03:37:36.802Z,101596.73
2018-08-10T03:40:07.667Z,101597.33
2018-08-10T03:42:36.560Z,101604.73
2018-08-10T03:45:05.890Z,101602.38
2018-08-10T03:47:34.785Z,101597.72
2018-08-10T03:50:04.083Z,101603.99
2018-08-10T03:52:33.034Z,101613.88
2018-08-10T03:55:01.962Z,101615.70
2018-08-10T03:57:30.891Z,101619.73
2018-08-10T03:59:59.807Z,101622.45
2018-08-10T04:02:28.710Z,101618.73
2018-08-10T04:04:57.623Z,101622.80
2018-08-10T04:07:26.564Z,101624.01
2018-08-10T04:09:55.446Z,101624.13
2018-08-10T04:12:24.356Z,101623.57
2018-08-10T04:14:53.240Z,101626.52
2018-08-10T04:17:24.613Z,101633.56
2018-08-10T04:19:54.623Z,101633.44
2018-08-10T04:22:25.523Z,101636.83
2018-08-10T04:24:54.470Z,101641.55
2018-08-10T04:27:23.448Z,101644.67
2018-08-10T04:29:52.387Z,101644.45
2018-08-10T04:32:21.279Z,101647.45
2018-08-10T04:34:50.229Z,101654.30
2018-08-10T04:37:20.190Z,101657.36
2018-08-10T04:39:49.126Z,101659.26
2018-08-10T04:42:18.032Z,101664.04
2018-08-10T04:44:46.928Z,101662.76
2018-08-10T04:47:15.844Z,101673.02
2018-08-10T04:49:44.792Z,101665.45
2018-08-10T04:52:13.722Z,101678.55
2018-08-10T04:54:42.638Z,101675.01
2018-08-10T04:57:11.654Z,101676.07
2018-08-10T04:59:40.658Z,101674.52
2018-08-10T05:02:09.665Z,101682.51
2018-08-10T05:04:38.583Z,101683.60
2018-08-10T05:07:07.448Z,101688.59
2018-08-10T05:09:36.369Z,101684.78
2018-08-10T05:12:05.319Z,101689.42
2018-08-10T05:14:34.166Z,101690.53
2018-08-10T05:17:03.102Z,101692.39
2018-08-10T05:19:31.950Z,101690.44
2018-08-10T05:22:00.874Z,101698.16
2018-08-10T05:24:29.775Z,101692.16
2018-08-10T05:26:58.709Z,101700.09
2018-08-10T05:29:27.639Z,101703.89
2018-08-10T05:31:56.534Z,101706.18
2018-08-10T05:34:25.490Z,101711.05
2018-08-10T05:36:54.501Z,101717.17
2018-08-10T05:39:23.360Z,101718.04
2018-08-10T05:41:52.255Z,101715.84
2018-08-10T05:44:21.145Z,101719.25
2018-08-10T05:46:50.074Z,101721.68
2018-08-10T05:49:47.582Z,101720.18
2018-08-10T05:52:16.584Z,101725.76
2018-08-10T05:54:45.523Z,101729.55
2018-08-10T05:57:14.952Z,101726.84
2018-08-10T05:59:43.847Z,101727.52
2018-08-10T06:02:12.752Z,101726.16
2018-08-10T06:04:42.695Z,101734.78
2018-08-10T06:07:12.093Z,101728.25
2018-08-10T06:09:40.991Z,101733.62
2018-08-10T06:12:09.918Z,101745.47
2018-08-10T06:14:38.873Z,101733.99
2018-08-10T06:17:07.796Z,101741.47
2018-08-10T06:19:36.769Z,101738.94
2018-08-10T06:22:05.668Z,101748.34
2018-08-10T06:24:34.660Z,101743.64
2018-08-10T06:27:03.564Z,101749.09
2018-08-10T06:29:32.440Z,101749.47
2018-08-10T06:32:01.326Z,101751.98
2018-08-10T06:34:30.209Z,101743.80
2018-08-10T06:36:59.142Z,101746.09
2018-08-10T06:39:27.993Z,101746.30
2018-08-10T06:41:57.017Z,101738.35
2018-08-10T06:44:25.939Z,101746.92
2018-08-10T06:46:54.822Z,101745.91
2018-08-10T06:49:23.746Z,101756.25
2018-08-10T06:51:52.625Z,101760.80
2018-08-10T06:54:22.561Z,101758.47
2018-08-10T06:56:51.434Z,101763.55
2018-08-10T06:59:20.352Z,101757.62
2018-08-10T07:01:49.225Z,101763.34
2018-08-10T07:04:18.299Z,101765.37
2018-08-10T07:06:47.283Z,101763.70
2018-08-10T07:09:16.274Z,101766.11
2018-08-10T07:11:45.235Z,101761.09
2018-08-10T07:14:14.172Z,101769.42
2018-08-10T07:16:43.244Z,101764.55
2018-08-10T07:19:12.149Z,101769.16
2018-08-10T07:21:41.032Z,101765.66
2018-08-10T07:24:09.934Z,101776.37
2018-08-10T07:26:38.802Z,101768.61
2018-08-10T07:29:07.744Z,101772.55
2018-08-10T07:31:36.609Z,101766.80
2018-08-10T07:34:05.628Z,101763.34
2018-08-10T07:36:34.613Z,101766.38
2018-08-10T07:39:03.670Z,101764.06
2018-08-10T07:41:32.559Z,101771.81
2018-08-10T07:44:01.417Z,101768.30
2018-08-10T07:46:30.336Z,101775.41
2018-08-10T07:48:59.254Z,101780.66
2018-08-10T07:51:28.195Z,101780.66
2018-08-10T07:53:57.080Z,101767.12
2018-08-10T07:56:26.003Z,101773.58
2018-08-10T07:58:54.966Z,101785.72
2018-08-10T08:01:23.863Z,101790.59
2018-08-10T08:03:52.673Z,101786.21
2018-08-10T08:06:21.593Z,101784.27
2018-08-10T08:08:51.482Z,101786.05
2018-08-10T08:11:20.455Z,101787.09
2018-08-10T08:13:49.426Z,101777.94
2018-08-10T08:16:18.339Z,101770.79
2018-08-10T08:18:47.206Z,101782.82
2018-08-10T08:21:16.109Z,101782.13
2018-08-10T08:23:45.007Z,101785.05
2018-08-10T08:26:13.873Z,101783.13
2018-08-10T08:28:42.838Z,101787.82
2018-08-10T08:31:11.682Z,101801.67
2018-08-10T08:33:51.752Z,101801.58
2018-08-10T08:36:20.634Z,101796.34
2018-08-10T08:41:03.843Z,101799.20
2018-08-10T08:46:08.267Z,101807.17
2018-08-10T08:48:41.595Z,101812.27
2018-08-10T08:51:12.775Z,101804.25
2018-08-10T08:53:41.719Z,101802.04
2018-08-10T08:56:14.984Z,101809.25
2018-08-10T08:58:44.921Z,101795.94
2018-08-10T09:01:14.176Z,101796.45
2018-08-10T09:05:06.330Z,101806.56
2018-08-10T09:07:36.392Z,101809.61
2018-08-10T09:10:11.929Z,101801.52
2018-08-10T09:12:40.823Z,101802.63
2018-08-10T09:15:11.868Z,101801.67
2018-08-10T09:17:40.903Z,101801.53
2018-08-10T09:20:10.328Z,101806.04
2018-08-10T09:22:39.296Z,101788.33
2018-08-10T09:25:10.513Z,101789.17
2018-08-10T09:27:39.483Z,101797.11
2018-08-10T09:30:09.801Z,101795.84
2018-08-10T09:32:38.883Z,101801.25
2018-08-10T09:35:08.795Z,101803.91
2018-08-10T09:37:37.743Z,101804.62
2018-08-10T09:40:09.704Z,101806.25
2018-08-10T09:42:38.630Z,101804.19
2018-08-10T09:45:08.378Z,101804.64
2018-08-10T09:47:37.391Z,101807.91
2018-08-10T09:50:07.624Z,101802.06
2018-08-10T09:52:36.533Z,101800.45
2018-08-10T09:55:20.921Z,101799.83
2018-08-10T09:57:51.261Z,101808.89
2018-08-10T10:00:25.356Z,101811.26
2018-08-10T10:02:59.291Z,101804.80
2018-08-10T10:05:28.263Z,101807.30
2018-08-10T10:07:57.783Z,101805.53
2018-08-10T10:10:26.985Z,101806.20
2018-08-10T10:12:56.583Z,101812.55
2018-08-10T10:15:25.579Z,101805.94
2018-08-10T10:17:55.294Z,101803.81
2018-08-10T10:20:24.559Z,101812.02
2018-08-10T10:22:53.898Z,101808.02
2018-08-10T10:25:23.075Z,101800.35
2018-08-10T10:27:53.117Z,101796.05
2018-08-10T10:30:22.709Z,101804.16
2018-08-10T10:32:51.972Z,101804.69
2018-08-10T10:35:21.135Z,101789.07
2018-08-10T10:37:50.356Z,101794.88
2018-08-10T10:40:19.380Z,101788.34
2018-08-10T10:42:48.294Z,101786.81
2018-08-10T10:45:17.182Z,101779.25
2018-08-10T10:47:47.251Z,101772.99
2018-08-10T10:50:16.702Z,101773.04
2018-08-10T10:52:45.731Z,101785.66
2018-08-10T10:55:14.654Z,101791.14
2018-08-10T10:57:44.091Z,101796.88
2018-08-10T11:00:16.707Z,101776.34
2018-08-10T11:02:46.739Z,101791.12
2018-08-10T11:05:15.755Z,101789.97
2018-08-10T11:07:44.850Z,101791.38
2018-08-10T11:10:15.168Z,101779.05
2018-08-10T11:12:44.161Z,101784.25
2018-08-10T11:15:13.569Z,101782.37
2018-08-10T11:17:43.679Z,101783.11
2018-08-10T11:20:13.302Z,101778.70
2018-08-10T11:22:42.771Z,101783.91
2018-08-10T11:25:12.959Z,101788.84
2018-08-10T11:27:42.854Z,101789.67
2018-08-10T11:30:13.905Z,101791.66
2018-08-10T11:32:42.780Z,101795.17
2018-08-10T11:35:11.756Z,101782.58
2018-08-10T11:37:40.733Z,101784.30
2018-08-10T11:40:12.385Z,101772.25
2018-08-10T11:42:41.721Z,101768.47
2018-08-10T11:45:13.161Z,101776.41
2018-08-10T11:47:42.299Z,101784.56
2018-08-10T11:50:11.461Z,101783.41
2018-08-10T11:52:40.314Z,101785.86
2018-08-10T11:55:11.256Z,101784.44
2018-08-10T11:57:40.245Z,101781.18
2018-08-10T12:00:10.562Z,101789.78
2018-08-10T12:02:39.522Z,101784.57
2018-08-10T12:05:09.679Z,101771.73
2018-08-10T12:07:38.582Z,101775.84
2018-08-10T12:10:07.905Z,101779.37
2018-08-10T12:12:36.869Z,101781.53
2018-08-10T12:15:07.936Z,101779.86
2018-08-10T12:17:37.182Z,101779.84
2018-08-10T12:20:06.233Z,101781.28
2018-08-10T12:22:35.282Z,101774.18
2018-08-10T12:25:04.718Z,101767.86
2018-08-10T12:27:33.656Z,101766.20
2018-08-10T12:30:02.619Z,101775.31
2018-08-10T12:32:31.537Z,101770.64
2018-08-10T12:35:00.406Z,101771.97
2018-08-10T12:37:29.349Z,101759.34
2018-08-10T12:39:58.402Z,101762.16
2018-08-10T12:42:27.301Z,101766.23
2018-08-10T12:44:56.213Z,101772.50
2018-08-10T12:47:25.122Z,101764.84
2018-08-10T12:49:54.065Z,101769.58
2018-08-10T12:52:23.998Z,101771.41
2018-08-10T12:54:53.011Z,101791.74
2018-08-10T12:57:21.916Z,101770.92
2018-08-10T12:59:50.996Z,101770.11
2018-08-10T13:02:19.918Z,101770.86
2018-08-10T13:04:48.909Z,101769.88
2018-08-10T13:07:17.880Z,101769.00
2018-08-10T13:09:46.839Z,101761.30
2018-08-10T13:12:15.781Z,101761.69
2018-08-10T13:14:44.686Z,101768.95
2018-08-10T13:17:13.822Z,101768.95
2018-08-10T13:19:42.812Z,101771.95
2018-08-10T13:22:11.829Z,101778.17
2018-08-10T13:24:40.856Z,101763.84
2018-08-10T13:27:09.818Z,101765.98
2018-08-10T13:29:38.808Z,101759.67
2018-08-10T13:32:07.788Z,101764.60
2018-08-10T13:34:36.820Z,101760.96
2018-08-10T13:37:05.866Z,101760.28
2018-08-10T13:39:34.837Z,101753.09
2018-08-10T13:42:03.820Z,101756.25
2018-08-10T13:44:32.761Z,101753.72
2018-08-10T13:47:01.705Z,101752.08
2018-08-10T13:49:30.715Z,101743.49
2018-08-10T13:51:59.604Z,101756.62
2018-08-10T13:54:28.526Z,101747.60
2018-08-10T13:56:57.416Z,101752.16
2018-08-10T13:59:26.266Z,101748.59
2018-08-10T14:01:55.332Z,101737.25
2018-08-10T14:04:24.574Z,101733.75
2018-08-10T14:06:53.762Z,101733.28
2018-08-10T14:09:22.684Z,101725.40
2018-08-10T14:11:51.764Z,101725.78
2018-08-10T14:14:20.715Z,101728.87
2018-08-10T14:16:49.731Z,101720.42
2018-08-10T14:19:18.625Z,101725.78
2018-08-10T14:21:47.539Z,101718.92
2018-08-10T14:24:16.436Z,101711.58
2018-08-10T14:26:45.325Z,101715.74
2018-08-10T14:29:14.242Z,101719.77
2018-08-10T14:31:43.108Z,101707.21
2018-08-10T14:34:11.996Z,101712.12
2018-08-10T14:36:40.892Z,101699.45
2018-08-10T14:39:11.138Z,101709.09
2018-08-10T14:41:40.197Z,101707.84
2018-08-10T14:44:09.199Z,101701.11
2018-08-10T14:46:38.213Z,101715.50
2018-08-10T14:49:07.831Z,101702.79
2018-08-10T14:51:36.751Z,101693.91
2018-08-10T14:54:06.086Z,101701.11
2018-08-10T14:56:34.961Z,101702.33
2018-08-10T14:59:03.810Z,101699.43
2018-08-10T15:01:32.754Z,101689.95
2018-08-10T15:04:01.752Z,101690.14
2018-08-10T15:06:30.757Z,101700.95
2018-08-10T15:08:59.684Z,101685.66
2018-08-10T15:11:28.598Z,101686.67
2018-08-10T15:13:57.597Z,101678.06
2018-08-10T15:16:26.523Z,101678.85
2018-08-10T15:18:55.508Z,101677.17
2018-08-10T15:21:24.406Z,101674.66
2018-08-10T15:23:54.332Z,101672.23
2018-08-10T15:26:23.206Z,101668.91
2018-08-10T15:28:52.107Z,101675.94
2018-08-10T15:31:21.012Z,101665.88
2018-08-10T15:33:50.017Z,101668.38
2018-08-10T15:36:18.908Z,101665.00
2018-08-10T15:38:48.055Z,101654.47
2018-08-10T15:41:16.995Z,101662.40
2018-08-10T15:43:45.969Z,101678.48
2018-08-10T15:46:14.838Z,101672.52
2018-08-10T15:48:43.755Z,101666.36
2018-08-10T15:51:13.009Z,101649.80
2018-08-10T15:53:42.153Z,101654.72
2018-08-10T15:56:11.094Z,101647.12
2018-08-10T15:58:39.958Z,101656.32
2018-08-10T16:01:08.911Z,101648.33
2018-08-10T16:03:37.977Z,101650.55
2018-08-10T16:06:06.889Z,101647.76
2018-08-10T16:08:35.810Z,101639.59
2018-08-10T16:11:04.761Z,101645.95
2018-08-10T16:13:33.634Z,101646.52
2018-08-10T16:16:02.544Z,101638.18
2018-08-10T16:18:31.418Z,101641.83
2018-08-10T16:21:00.359Z,101638.53
2018-08-10T16:23:29.248Z,101630.45
2018-08-10T16:25:58.166Z,101631.08
2018-08-10T16:28:27.164Z,101636.53
2018-08-10T16:30:56.069Z,101625.07
2018-08-10T16:33:24.998Z,101635.23
2018-08-10T16:35:53.989Z,101619.30
2018-08-10T16:38:22.904Z,101620.62
2018-08-10T16:40:51.900Z,101622.52
2018-08-10T16:43:20.987Z,101617.59
2018-08-10T16:45:49.850Z,101616.55
2018-08-10T16:48:18.878Z,101621.73
2018-08-10T16:50:47.980Z,101616.08
2018-08-10T16:53:17.309Z,101613.02
2018-08-10T16:55:46.228Z,101619.75
2018-08-10T16:58:15.125Z,101619.81
2018-08-10T17:00:44.037Z,101629.77
2018-08-10T17:03:12.942Z,101622.93
2018-08-10T17:05:41.982Z,101615.47
2018-08-10T17:08:10.923Z,101622.86
2018-08-10T17:10:40.303Z,101618.23
2018-08-10T17:13:09.151Z,101619.91
2018-08-10T17:15:38.090Z,101615.48
2018-08-10T17:18:06.975Z,101621.51
2018-08-10T17:20:35.833Z,101618.23
2018-08-10T17:23:04.754Z,101610.25
2018-08-10T17:25:33.778Z,101609.16
2018-08-10T17:28:02.700Z,101611.94
2018-08-10T17:30:31.632Z,101614.67
2018-08-10T17:33:00.675Z,101608.09
2018-08-10T17:35:29.471Z,101605.86
2018-08-10T17:37:58.380Z,101593.20
2018-08-10T17:40:27.313Z,101596.28
2018-08-10T17:42:56.196Z,101589.63
2018-08-10T17:45:25.086Z,101580.89
2018-08-10T17:47:54.244Z,101574.80
2018-08-10T17:50:23.173Z,101579.73
2018-08-10T17:52:53.293Z,101578.97
2018-08-10T17:55:22.696Z,101590.77
2018-08-10T17:57:51.595Z,101588.88
2018-08-10T18:00:22.007Z,101583.36
2018-08-10T18:02:51.320Z,101587.80
2018-08-10T18:05:21.283Z,101590.82
2018-08-10T18:07:50.172Z,101595.48
2018-08-10T18:10:19.639Z,101591.96
2018-08-10T18:12:48.638Z,101590.59
2018-08-10T18:15:19.033Z,101585.67
2018-08-10T18:17:48.388Z,101592.78
2018-08-10T18:20:19.176Z,101586.23
2018-08-10T18:22:49.245Z,101591.77
2018-08-10T18:25:19.319Z,101590.72
2018-08-10T18:27:48.242Z,101593.20
2018-08-10T18:30:22.074Z,101592.63
2018-08-10T18:32:50.993Z,101591.83
2018-08-10T18:35:19.872Z,101597.34
2018-08-10T18:37:49.491Z,101584.16
2018-08-10T18:40:18.554Z,101591.05
2018-08-10T18:42:48.534Z,101590.50
2018-08-10T18:45:18.578Z,101584.20
2018-08-10T18:47:47.521Z,101591.04
2018-08-10T18:50:17.439Z,101588.86
2018-08-10T18:52:46.329Z,101584.75
2018-08-10T18:55:18.733Z,101595.15
2018-08-10T18:57:47.616Z,101593.27
2018-08-10T19:00:18.312Z,101587.78
2018-08-10T19:02:47.368Z,101592.70
2018-08-10T19:05:17.015Z,101593.28
2018-08-10T19:07:46.425Z,101586.67
2018-08-10T19:10:24.240Z,101587.52
2018-08-10T19:12:53.209Z,101591.62
2018-08-10T19:15:22.115Z,101594.38
2018-08-10T19:17:51.043Z,101597.11
2018-08-10T19:20:19.867Z,101594.66
2018-08-10T19:22:48.853Z,101597.13
2018-08-10T19:25:18.062Z,101595.20
2018-08-10T19:27:46.987Z,101594.91
2018-08-10T19:30:18.240Z,101593.55
2018-08-10T19:32:47.758Z,101600.15
2018-08-10T19:35:17.310Z,101597.41
2018-08-10T19:37:46.215Z,101601.53
2018-08-10T19:40:16.257Z,101599.87
2018-08-10T19:42:45.136Z,101606.97
2018-08-10T19:45:14.684Z,101598.78
2018-08-10T19:47:43.895Z,101604.80
2018-08-10T19:50:14.169Z,101613.01
2018-08-10T19:52:43.283Z,101606.16
2018-08-10T19:55:13.797Z,101604.79
2018-08-10T19:57:43.732Z,101605.88
2018-08-10T20:00:14.214Z,101596.58
2018-08-10T20:02:43.271Z,101599.87
2018-08-10T20:05:12.179Z,101597.13
2018-08-10T20:07:41.069Z,101591.34
2018-08-10T20:10:11.165Z,101595.72
2018-08-10T20:12:40.126Z,101591.62
2018-08-10T20:15:12.646Z,101591.33
2018-08-10T20:17:42.101Z,101582.55
2018-08-10T20:20:12.749Z,101579.53
2018-08-10T20:22:41.642Z,101576.27
2018-08-10T20:25:11.279Z,101575.99
2018-08-10T20:27:40.172Z,101573.80
2018-08-10T20:30:11.025Z,101573.80
2018-08-10T20:32:40.300Z,101564.47
2018-08-10T20:35:12.220Z,101558.47
2018-08-10T20:37:41.809Z,101564.45
2018-08-10T20:40:13.455Z,101561.48
2018-08-10T20:42:42.385Z,101556.53
2018-08-10T20:45:12.442Z,101567.48
2018-08-10T20:47:41.339Z,101567.18
2018-08-10T20:50:14.041Z,101565.59
2018-08-10T20:52:43.446Z,101566.66
2018-08-10T20:55:12.540Z,101568.56
2018-08-10T20:57:41.481Z,101565.79
2018-08-10T21:00:10.913Z,101565.57
2018-08-10T21:02:40.556Z,101568.31
2018-08-10T21:05:09.438Z,101569.11
2018-08-10T21:07:38.374Z,101569.11
2018-08-10T21:10:09.789Z,101571.56
2018-08-10T21:12:39.125Z,101571.84
2018-08-10T21:15:08.969Z,101572.66
2018-08-10T21:17:37.995Z,101571.55
2018-08-10T21:20:08.328Z,101575.16
2018-08-10T21:22:37.316Z,101574.31
2018-08-10T21:25:06.379Z,101572.40
2018-08-10T21:27:35.273Z,101566.06
2018-08-10T21:30:05.582Z,101566.84
2018-08-10T21:32:34.561Z,101564.41
2018-08-10T21:35:03.504Z,101560.30
2018-08-10T21:37:32.601Z,101558.41
2018-08-10T21:40:01.571Z,101554.56
2018-08-10T21:42:30.583Z,101556.79
2018-08-10T21:44:59.621Z,101554.55
2018-08-10T21:47:28.591Z,101557.56
2018-08-10T21:49:57.476Z,101553.70
2018-08-10T21:52:26.373Z,101546.63
2018-08-10T21:54:55.257Z,101556.48
2018-08-10T21:57:24.168Z,101554.30
2018-08-10T21:59:53.072Z,101556.50
2018-08-10T22:02:22.749Z,101550.45
2018-08-10T22:04:51.641Z,101552.37
2018-08-10T22:07:20.772Z,101545.23
2018-08-10T22:09:49.685Z,101541.70
2018-08-10T22:12:18.923Z,101542.53
2018-08-10T22:14:53.493Z,101544.42
2018-08-10T22:17:27.861Z,101551.52
2018-08-10T22:20:00.350Z,101546.33
2018-08-10T22:22:30.794Z,101545.77
2018-08-10T22:24:59.845Z,101552.59
2018-08-10T22:27:28.787Z,101544.67
2018-08-10T22:29:57.649Z,101546.55
2018-08-10T22:32:26.601Z,101549.86
2018-08-10T22:34:55.492Z,101550.90
2018-08-10T22:37:24.480Z,101545.19
2018-08-10T22:39:53.376Z,101548.42
2018-08-10T22:42:22.291Z,101546.72
2018-08-10T22:44:51.178Z,101553.88
2018-08-10T22:47:20.177Z,101550.95
2018-08-10T22:49:49.092Z,101553.35
2018-08-10T22:52:17.935Z,101548.67
2018-08-10T22:54:46.817Z,101545.92
2018-08-10T22:57:15.733Z,101545.67
2018-08-10T22:59:45.702Z,101547.28
2018-08-10T23:02:14.639Z,101545.10
2018-08-10T23:04:43.578Z,101548.64
2018-08-10T23:07:12.509Z,101541.22
2018-08-10T23:09:41.424Z,101540.42
2018-08-10T23:12:10.366Z,101539.06
2018-08-10T23:14:39.288Z,101535.49
2018-08-10T23:17:08.197Z,101534.72
2018-08-10T23:19:37.142Z,101524.82
2018-08-10T23:22:06.070Z,101527.77
2018-08-10T23:24:35.122Z,101528.08
2018-08-10T23:27:04.075Z,101526.70
2018-08-10T23:29:32.963Z,101523.16
2018-08-10T23:32:02.233Z,101525.34
2018-08-10T23:34:31.433Z,101520.64
2018-08-10T23:37:00.341Z,101517.62
2018-08-10T23:39:29.310Z,101518.52
2018-08-10T23:41:58.204Z,101512.25
2018-08-10T23:44:27.108Z,101506.47
2018-08-10T23:46:56.034Z,101508.70
2018-08-10T23:49:24.955Z,101516.56
2018-08-10T23:51:53.893Z,101511.37
2018-08-10T23:54:22.764Z,101519.23
2018-08-10T23:56:51.676Z,101517.59
2018-08-10T23:59:20.631Z,101522.27
